sensor_id;sensor_type;location;lat;lon;timestamp;pressure;altitude;pressure_sealevel;temperature;humidity
50394;BME280;36308;46.312;25.288;2022-09-09T00:01:13;96098.13;;;14.98;68.20
50394;BME280;36308;46.312;25.288;2022-09-09T00:03:56;96103.84;;;14.97;68.47
50394;BME280;36308;46.312;25.288;2022-09-09T00:06:31;96107.63;;;14.95;68.20
50394;BME280;36308;46.312;25.288;2022-09-09T00:09:08;96109.03;;;14.93;68.12
50394;BME280;36308;46.312;25.288;2022-09-09T00:20:32;96111.47;;;14.89;68.47
50394;BME280;36308;46.312;25.288;2022-09-09T00:28:23;96124.53;;;14.82;68.32
50394;BME280;36308;46.312;25.288;2022-09-09T00:30:50;96118.59;;;14.80;68.59
50394;BME280;36308;46.312;25.288;2022-09-09T00:33:22;96122.38;;;14.79;68.38
50394;BME280;36308;46.312;25.288;2022-09-09T00:38:19;96117.03;;;14.74;68.75
50394;BME280;36308;46.312;25.288;2022-09-09T00:41:21;96131.34;;;14.74;68.60
50394;BME280;36308;46.312;25.288;2022-09-09T00:44:16;96137.34;;;14.71;68.75
50394;BME280;36308;46.312;25.288;2022-09-09T00:57:57;96135.22;;;14.63;68.47
50394;BME280;36308;46.312;25.288;2022-09-09T01:07:58;96114.97;;;14.50;68.66
50394;BME280;36308;46.312;25.288;2022-09-09T01:13:07;96110.19;;;14.37;68.66
50394;BME280;36308;46.312;25.288;2022-09-09T01:15:37;96099.94;;;14.34;68.82
50394;BME280;36308;46.312;25.288;2022-09-09T01:18:06;96103.19;;;14.36;68.66
50394;BME280;36308;46.312;25.288;2022-09-09T01:26:42;96109.94;;;14.33;69.12
50394;BME280;36308;46.312;25.288;2022-09-09T01:29:11;96106.44;;;14.33;68.77
50394;BME280;36308;46.312;25.288;2022-09-09T01:32:36;96098.63;;;14.26;69.15
50394;BME280;36308;46.312;25.288;2022-09-09T01:34:33;96095.66;;;14.23;69.09
50394;BME280;36308;46.312;25.288;2022-09-09T01:37:06;96106.47;;;14.28;69.29
50394;BME280;36308;46.312;25.288;2022-09-09T01:39:34;96104.59;;;14.23;68.93
50394;BME280;36308;46.312;25.288;2022-09-09T01:42:01;96104.34;;;14.20;69.20
50394;BME280;36308;46.312;25.288;2022-09-09T01:44:28;96111.38;;;14.21;69.13
50394;BME280;36308;46.312;25.288;2022-09-09T01:46:55;96119.47;;;14.21;68.96
50394;BME280;36308;46.312;25.288;2022-09-09T01:49:20;96110.88;;;14.13;69.12
50394;BME280;36308;46.312;25.288;2022-09-09T01:51:51;96115.44;;;14.13;69.22
50394;BME280;36308;46.312;25.288;2022-09-09T01:54:18;96116.81;;;14.10;69.10
50394;BME280;36308;46.312;25.288;2022-09-09T02:07:41;96113.06;;;14.06;69.48
50394;BME280;36308;46.312;25.288;2022-09-09T02:12:33;96110.91;;;14.03;69.57
50394;BME280;36308;46.312;25.288;2022-09-09T02:15:07;96113.09;;;14.01;69.50
50394;BME280;36308;46.312;25.288;2022-09-09T02:17:37;96116.88;;;14.00;69.53
50394;BME280;36308;46.312;25.288;2022-09-09T02:20:10;96105.00;;;13.96;69.23
50394;BME280;36308;46.312;25.288;2022-09-09T02:22:39;96101.50;;;13.95;69.40
50394;BME280;36308;46.312;25.288;2022-09-09T02:25:08;96105.56;;;13.93;69.63
50394;BME280;36308;46.312;25.288;2022-09-09T02:27:35;96103.44;;;13.85;69.37
50394;BME280;36308;46.312;25.288;2022-09-09T02:30:02;96110.16;;;13.87;69.76
50394;BME280;36308;46.312;25.288;2022-09-09T02:32:29;96102.88;;;13.88;69.59
50394;BME280;36308;46.312;25.288;2022-09-09T02:35:05;96096.94;;;13.86;69.67
50394;BME280;36308;46.312;25.288;2022-09-09T02:37:36;96101.78;;;13.84;69.73
50394;BME280;36308;46.312;25.288;2022-09-09T02:40:04;96094.78;;;13.83;69.55
50394;BME280;36308;46.312;25.288;2022-09-09T02:42:30;96081.84;;;13.74;69.71
50394;BME280;36308;46.312;25.288;2022-09-09T02:44:55;96088.06;;;13.75;69.96
50394;BME280;36308;46.312;25.288;2022-09-09T02:52:52;96089.97;;;13.69;69.76
50394;BME280;36308;46.312;25.288;2022-09-09T02:55:41;96088.63;;;13.72;69.96
50394;BME280;36308;46.312;25.288;2022-09-09T02:58:10;96086.19;;;13.70;69.95
50394;BME280;36308;46.312;25.288;2022-09-09T03:00:39;96087.00;;;13.71;69.66
50394;BME280;36308;46.312;25.288;2022-09-09T03:03:06;96095.38;;;13.69;70.01
50394;BME280;36308;46.312;25.288;2022-09-09T03:05:31;96106.75;;;13.66;70.05
50394;BME280;36308;46.312;25.288;2022-09-09T03:07:57;96088.34;;;13.63;70.03
50394;BME280;36308;46.312;25.288;2022-09-09T03:10:22;96094.03;;;13.67;70.25
50394;BME280;36308;46.312;25.288;2022-09-09T03:12:48;96091.59;;;13.65;70.20
50394;BME280;36308;46.312;25.288;2022-09-09T03:15:13;96094.31;;;13.65;70.22
50394;BME280;36308;46.312;25.288;2022-09-09T03:17:39;96093.22;;;13.61;70.42
50394;BME280;36308;46.312;25.288;2022-09-09T03:20:06;96084.84;;;13.63;70.45
50394;BME280;36308;46.312;25.288;2022-09-09T03:22:32;96086.50;;;13.64;70.44
50394;BME280;36308;46.312;25.288;2022-09-09T03:24:58;96083.53;;;13.60;70.55
50394;BME280;36308;46.312;25.288;2022-09-09T03:27:23;96086.22;;;13.60;70.57
50394;BME280;36308;46.312;25.288;2022-09-09T03:29:49;96093.78;;;13.58;70.67
50394;BME280;36308;46.312;25.288;2022-09-09T03:32:16;96101.91;;;13.58;70.76
50394;BME280;36308;46.312;25.288;2022-09-09T03:34:43;96103.22;;;13.61;70.74
50394;BME280;36308;46.312;25.288;2022-09-09T03:37:08;96098.41;;;13.58;71.02
50394;BME280;36308;46.312;25.288;2022-09-09T03:42:40;96113.25;;;13.60;70.69
50394;BME280;36308;46.312;25.288;2022-09-09T03:45:08;96118.66;;;13.60;70.81
50394;BME280;36308;46.312;25.288;2022-09-09T03:47:56;96114.31;;;13.59;70.88
50394;BME280;36308;46.312;25.288;2022-09-09T03:50:22;96108.91;;;13.59;70.80
50394;BME280;36308;46.312;25.288;2022-09-09T03:52:48;96106.75;;;13.56;70.73
50394;BME280;36308;46.312;25.288;2022-09-09T03:55:14;96111.59;;;13.59;71.19
50394;BME280;36308;46.312;25.288;2022-09-09T03:57:39;96113.78;;;13.57;71.08
50394;BME280;36308;46.312;25.288;2022-09-09T04:00:06;96113.25;;;13.60;71.51
50394;BME280;36308;46.312;25.288;2022-09-09T04:02:33;96113.25;;;13.60;71.16
50394;BME280;36308;46.312;25.288;2022-09-09T04:04:58;96118.06;;;13.63;71.13
50394;BME280;36308;46.312;25.288;2022-09-09T04:07:24;96114.31;;;13.64;71.55
50394;BME280;36308;46.312;25.288;2022-09-09T04:09:52;96110.81;;;13.64;71.14
50394;BME280;36308;46.312;25.288;2022-09-09T04:12:19;96110.50;;;13.65;71.26
50394;BME280;36308;46.312;25.288;2022-09-09T04:14:46;96100.22;;;13.67;71.45
50394;BME280;36308;46.312;25.288;2022-09-09T04:17:11;96107.28;;;13.68;71.72
50394;BME280;36308;46.312;25.288;2022-09-09T04:19:37;96091.91;;;13.64;71.60
50394;BME280;36308;46.312;25.288;2022-09-09T04:22:03;96092.97;;;13.68;71.99
50394;BME280;36308;46.312;25.288;2022-09-09T04:24:29;96088.91;;;13.70;71.78
50394;BME280;36308;46.312;25.288;2022-09-09T04:26:54;96099.97;;;13.74;71.78
50394;BME280;36308;46.312;25.288;2022-09-09T04:29:20;96096.44;;;13.73;71.95
50394;BME280;36308;46.312;25.288;2022-09-09T04:31:46;96088.31;;;13.73;71.92
50394;BME280;36308;46.312;25.288;2022-09-09T04:34:11;96093.72;;;13.79;72.15
50394;BME280;36308;46.312;25.288;2022-09-09T04:36:36;96088.84;;;13.81;72.08
50394;BME280;36308;46.312;25.288;2022-09-09T04:39:05;96079.94;;;13.80;71.94
50394;BME280;36308;46.312;25.288;2022-09-09T04:41:31;96084.78;;;13.83;72.18
50394;BME280;36308;46.312;25.288;2022-09-09T04:43:57;96089.09;;;13.89;72.12
50394;BME280;36308;46.312;25.288;2022-09-09T04:46:22;96086.91;;;13.91;72.40
50394;BME280;36308;46.312;25.288;2022-09-09T04:48:50;96080.72;;;13.86;72.71
50394;BME280;36308;46.312;25.288;2022-09-09T04:51:16;96096.88;;;14.01;72.16
50394;BME280;36308;46.312;25.288;2022-09-09T04:53:41;96085.00;;;13.97;72.49
50394;BME280;36308;46.312;25.288;2022-09-09T04:56:09;96097.38;;;14.08;72.32
50394;BME280;36308;46.312;25.288;2022-09-09T04:58:36;96100.34;;;14.12;72.39
50394;BME280;36308;46.312;25.288;2022-09-09T05:01:07;96104.91;;;14.17;72.49
50394;BME280;36308;46.312;25.288;2022-09-09T05:03:33;96113.28;;;14.20;72.34
50394;BME280;36308;46.312;25.288;2022-09-09T05:06:06;96108.66;;;14.21;72.63
50394;BME280;36308;46.312;25.288;2022-09-09T05:08:33;96118.34;;;14.32;72.71
50394;BME280;36308;46.312;25.288;2022-09-09T05:10:59;96126.69;;;14.35;72.42
50394;BME280;36308;46.312;25.288;2022-09-09T05:13:28;96126.69;;;14.41;72.52
50394;BME280;36308;46.312;25.288;2022-09-09T05:15:54;96127.75;;;14.45;72.57
50394;BME280;36308;46.312;25.288;2022-09-09T05:18:20;96122.56;;;14.48;72.67
50394;BME280;36308;46.312;25.288;2022-09-09T05:20:48;96108.22;;;14.48;72.62
50394;BME280;36308;46.312;25.288;2022-09-09T05:23:13;96128.47;;;14.61;72.53
50394;BME280;36308;46.312;25.288;2022-09-09T05:25:39;96126.81;;;14.65;72.64
50394;BME280;36308;46.312;25.288;2022-09-09T05:28:07;96134.91;;;14.70;72.67
50394;BME280;36308;46.312;25.288;2022-09-09T05:30:33;96132.97;;;14.75;72.62
50394;BME280;36308;46.312;25.288;2022-09-09T05:32:59;96132.66;;;14.82;72.59
50394;BME280;36308;46.312;25.288;2022-09-09T05:35:24;96137.47;;;14.90;72.60
50394;BME280;36308;46.312;25.288;2022-09-09T05:37:50;96149.56;;;14.98;72.09
50394;BME280;36308;46.312;25.288;2022-09-09T05:40:15;96143.09;;;14.99;71.96
50394;BME280;36308;46.312;25.288;2022-09-09T05:42:41;96147.31;;;15.10;71.89
50394;BME280;36308;46.312;25.288;2022-09-09T05:45:08;96158.91;;;15.16;71.94
50394;BME280;36308;46.312;25.288;2022-09-09T05:47:35;96157.25;;;15.20;71.67
50394;BME280;36308;46.312;25.288;2022-09-09T05:50:02;96148.00;;;15.26;71.80
50394;BME280;36308;46.312;25.288;2022-09-09T05:52:28;96150.66;;;15.31;71.47
50394;BME280;36308;46.312;25.288;2022-09-09T05:54:54;96172.81;;;15.39;71.54
50394;BME280;36308;46.312;25.288;2022-09-09T05:57:21;96168.69;;;15.46;71.24
50394;BME280;36308;46.312;25.288;2022-09-09T05:59:46;96143.47;;;15.46;71.51
50394;BME280;36308;46.312;25.288;2022-09-09T06:02:12;96136.97;;;15.47;71.43
50394;BME280;36308;46.312;25.288;2022-09-09T06:04:38;96161.44;;;15.66;71.15
50394;BME280;36308;46.312;25.288;2022-09-09T06:07:04;96151.63;;;15.75;70.97
50394;BME280;36308;46.312;25.288;2022-09-09T06:09:33;96154.28;;;15.80;71.15
50394;BME280;36308;46.312;25.288;2022-09-09T06:11:58;96163.69;;;15.88;70.90
50394;BME280;36308;46.312;25.288;2022-09-09T06:14:24;96164.38;;;15.99;70.88
50394;BME280;36308;46.312;25.288;2022-09-09T06:16:51;96173.19;;;16.09;70.62
50394;BME280;36308;46.312;25.288;2022-09-09T06:19:16;96168.81;;;16.13;70.50
50394;BME280;36308;46.312;25.288;2022-09-09T06:21:42;96163.53;;;16.22;70.12
50394;BME280;36308;46.312;25.288;2022-09-09T06:24:09;96159.38;;;16.30;70.13
50394;BME280;36308;46.312;25.288;2022-09-09T06:26:37;96165.25;;;16.37;70.06
50394;BME280;36308;46.312;25.288;2022-09-09T06:29:06;96162.47;;;16.42;69.40
50394;BME280;36308;46.312;25.288;2022-09-09T06:31:33;96162.13;;;16.49;69.58
50394;BME280;36308;46.312;25.288;2022-09-09T06:33:59;96143.63;;;16.51;69.72
50394;BME280;36308;46.312;25.288;2022-09-09T06:36:30;96136.66;;;16.64;69.38
50394;BME280;36308;46.312;25.288;2022-09-09T06:38:56;96139.53;;;16.72;69.03
50394;BME280;36308;46.312;25.288;2022-09-09T06:41:25;96135.34;;;16.80;69.11
50394;BME280;36308;46.312;25.288;2022-09-09T06:44:04;96134.78;;;16.83;68.67
50394;BME280;36308;46.312;25.288;2022-09-09T06:46:30;96140.66;;;16.90;68.46
50394;BME280;36308;46.312;25.288;2022-09-09T06:48:58;96139.47;;;16.96;68.16
50394;BME280;36308;46.312;25.288;2022-09-09T06:51:27;96135.84;;;17.01;68.51
50394;BME280;36308;46.312;25.288;2022-09-09T06:53:55;96138.19;;;17.08;68.70
50394;BME280;36308;46.312;25.288;2022-09-09T06:56:26;96127.84;;;17.10;68.84
50394;BME280;36308;46.312;25.288;2022-09-09T06:58:54;96126.75;;;17.11;68.69
50394;BME280;36308;46.312;25.288;2022-09-09T07:01:24;96136.41;;;17.17;68.66
50394;BME280;36308;46.312;25.288;2022-09-09T07:03:52;96143.16;;;17.20;68.42
50394;BME280;36308;46.312;25.288;2022-09-09T07:06:23;96150.13;;;17.26;68.56
50394;BME280;36308;46.312;25.288;2022-09-09T07:08:51;96148.44;;;17.30;68.71
50394;BME280;36308;46.312;25.288;2022-09-09T07:11:17;96150.56;;;17.33;68.73
50394;BME280;36308;46.312;25.288;2022-09-09T07:13:43;96130.72;;;17.32;69.01
50394;BME280;36308;46.312;25.288;2022-09-09T07:16:11;96145.06;;;17.52;68.87
50394;BME280;36308;46.312;25.288;2022-09-09T07:18:39;96160.19;;;17.58;69.02
50394;BME280;36308;46.312;25.288;2022-09-09T07:21:04;96147.97;;;17.55;68.79
50394;BME280;36308;46.312;25.288;2022-09-09T07:23:31;96161.81;;;17.73;68.50
50394;BME280;36308;46.312;25.288;2022-09-09T07:25:58;96161.13;;;17.81;68.57
50394;BME280;36308;46.312;25.288;2022-09-09T07:28:25;96159.16;;;17.87;68.38
50394;BME280;36308;46.312;25.288;2022-09-09T07:30:58;96160.97;;;17.91;68.25
50394;BME280;36308;46.312;25.288;2022-09-09T07:33:25;96162.47;;;17.97;67.93
50394;BME280;36308;46.312;25.288;2022-09-09T07:35:51;96162.06;;;18.04;67.60
50394;BME280;36308;46.312;25.288;2022-09-09T07:38:18;96165.19;;;18.11;67.73
50394;BME280;36308;46.312;25.288;2022-09-09T07:40:44;96168.91;;;18.15;67.73
50394;BME280;36308;46.312;25.288;2022-09-09T07:43:10;96181.00;;;18.23;67.62
50394;BME280;36308;46.312;25.288;2022-09-09T07:45:36;96173.56;;;18.29;67.72
50394;BME280;36308;46.312;25.288;2022-09-09T07:48:02;96197.22;;;18.42;67.50
50394;BME280;36308;46.312;25.288;2022-09-09T07:50:29;96191.88;;;18.51;67.29
50394;BME280;36308;46.312;25.288;2022-09-09T07:52:55;96176.34;;;18.51;66.75
50394;BME280;36308;46.312;25.288;2022-09-09T07:55:21;96168.28;;;18.60;66.38
50394;BME280;36308;46.312;25.288;2022-09-09T07:57:50;96176.91;;;18.76;66.39
50394;BME280;36308;46.312;25.288;2022-09-09T08:00:15;96171.88;;;18.83;66.21
50394;BME280;36308;46.312;25.288;2022-09-09T08:02:41;96173.06;;;18.91;65.90
50394;BME280;36308;46.312;25.288;2022-09-09T08:05:07;96171.63;;;18.93;65.65
50394;BME280;36308;46.312;25.288;2022-09-09T08:07:33;96180.28;;;19.09;65.33
50394;BME280;36308;46.312;25.288;2022-09-09T08:09:59;96165.56;;;19.19;64.92
50394;BME280;36308;46.312;25.288;2022-09-09T08:12:24;96164.66;;;19.24;64.61
50394;BME280;36308;46.312;25.288;2022-09-09T08:14:50;96157.53;;;19.36;64.73
50394;BME280;36308;46.312;25.288;2022-09-09T08:17:16;96155.06;;;19.49;64.63
50394;BME280;36308;46.312;25.288;2022-09-09T08:19:42;96142.72;;;19.51;64.68
50394;BME280;36308;46.312;25.288;2022-09-09T08:22:07;96148.56;;;19.67;64.31
50394;BME280;36308;46.312;25.288;2022-09-09T08:24:33;96158.13;;;19.78;64.40
50394;BME280;36308;46.312;25.288;2022-09-09T08:26:59;96145.31;;;19.88;64.03
50394;BME280;36308;46.312;25.288;2022-09-09T08:29:24;96133.31;;;19.97;64.02
50394;BME280;36308;46.312;25.288;2022-09-09T08:31:54;96143.63;;;20.09;63.40
50394;BME280;36308;46.312;25.288;2022-09-09T08:34:21;96133.53;;;20.18;63.31
50394;BME280;36308;46.312;25.288;2022-09-09T08:36:48;96139.34;;;20.26;63.02
50394;BME280;36308;46.312;25.288;2022-09-09T08:39:16;96139.06;;;20.36;62.89
50394;BME280;36308;46.312;25.288;2022-09-09T08:47:44;96126.25;;;20.63;62.25
50394;BME280;36308;46.312;25.288;2022-09-09T08:50:19;96130.63;;;20.72;62.24
50394;BME280;36308;46.312;25.288;2022-09-09T08:53:05;96136.72;;;20.78;62.12
50394;BME280;36308;46.312;25.288;2022-09-09T08:55:45;96131.09;;;20.83;62.07
50394;BME280;36308;46.312;25.288;2022-09-09T09:03:55;96126.75;;;20.91;61.72
50394;BME280;36308;46.312;25.288;2022-09-09T09:11:50;96138.50;;;20.91;63.76
50394;BME280;36308;46.312;25.288;2022-09-09T09:14:20;96134.00;;;20.95;63.87
50394;BME280;36308;46.312;25.288;2022-09-09T09:19:17;96115.53;;;20.92;64.84
50394;BME280;36308;46.312;25.288;2022-09-09T09:21:45;96114.88;;;20.87;65.13
50394;BME280;36308;46.312;25.288;2022-09-09T09:24:19;96122.09;;;20.91;65.67
50394;BME280;36308;46.312;25.288;2022-09-09T09:26:45;96106.84;;;20.82;65.93
50394;BME280;36308;46.312;25.288;2022-09-09T09:29:14;96106.34;;;20.88;66.30
50394;BME280;36308;46.312;25.288;2022-09-09T09:31:45;96112.44;;;20.85;66.34
50394;BME280;36308;46.312;25.288;2022-09-09T09:34:13;96113.41;;;20.89;66.57
50394;BME280;36308;46.312;25.288;2022-09-09T09:36:44;96107.94;;;20.89;67.08
50394;BME280;36308;46.312;25.288;2022-09-09T09:39:23;96100.22;;;20.91;67.44
50394;BME280;36308;46.312;25.288;2022-09-09T09:41:49;96100.22;;;20.91;67.63
50394;BME280;36308;46.312;25.288;2022-09-09T09:44:31;96101.19;;;20.95;68.05
50394;BME280;36308;46.312;25.288;2022-09-09T09:47:13;96111.50;;;20.98;68.13
50394;BME280;36308;46.312;25.288;2022-09-09T09:49:51;96113.75;;;20.96;68.11
50394;BME280;36308;46.312;25.288;2022-09-09T09:52:21;96099.59;;;20.94;68.01
50394;BME280;36308;46.312;25.288;2022-09-09T09:54:47;96107.47;;;21.05;68.03
50394;BME280;36308;46.312;25.288;2022-09-09T09:57:16;96107.00;;;21.03;68.01
50394;BME280;36308;46.312;25.288;2022-09-09T09:59:43;96118.22;;;21.10;68.01
50394;BME280;36308;46.312;25.288;2022-09-09T10:04:45;96116.94;;;21.16;67.92
50394;BME280;36308;46.312;25.288;2022-09-09T10:07:21;96107.63;;;21.17;67.69
50394;BME280;36308;46.312;25.288;2022-09-09T10:09:56;96107.44;;;21.22;66.90
50394;BME280;36308;46.312;25.288;2022-09-09T10:23:49;96101.28;;;21.51;65.77
50394;BME280;36308;46.312;25.288;2022-09-09T10:26:32;96099.47;;;21.64;65.87
50394;BME280;36308;46.312;25.288;2022-09-09T10:34:39;96100.97;;;22.00;65.73
50394;BME280;36308;46.312;25.288;2022-09-09T10:40:27;96095.38;;;22.17;65.11
50394;BME280;36308;46.312;25.288;2022-09-09T10:42:52;96095.53;;;22.21;64.57
50394;BME280;36308;46.312;25.288;2022-09-09T10:45:21;96096.19;;;22.27;64.34
50394;BME280;36308;46.312;25.288;2022-09-09T10:48:03;96095.97;;;22.32;64.64
50394;BME280;36308;46.312;25.288;2022-09-09T10:50:53;96106.25;;;22.35;64.68
50394;BME280;36308;46.312;25.288;2022-09-09T10:53:48;96111.06;;;22.38;64.43
50394;BME280;36308;46.312;25.288;2022-09-09T10:56:18;96117.03;;;22.40;64.04
50394;BME280;36308;46.312;25.288;2022-09-09T10:58:56;96134.59;;;22.39;63.73
50394;BME280;36308;46.312;25.288;2022-09-09T11:01:35;96138.00;;;22.36;63.46
50394;BME280;36308;46.312;25.288;2022-09-09T11:04:16;96152.34;;;22.33;63.22
50394;BME280;36308;46.312;25.288;2022-09-09T11:06:49;96160.13;;;22.31;63.11
50394;BME280;36308;46.312;25.288;2022-09-09T11:09:21;96171.25;;;22.26;62.96
50394;BME280;36308;46.312;25.288;2022-09-09T11:17:10;96174.50;;;22.10;63.47
50394;BME280;36308;46.312;25.288;2022-09-09T11:19:42;96171.94;;;22.05;63.71
50394;BME280;36308;46.312;25.288;2022-09-09T11:22:51;96180.34;;;22.00;64.07
50394;BME280;36308;46.312;25.288;2022-09-09T11:25:29;96179.72;;;21.94;64.14
50394;BME280;36308;46.312;25.288;2022-09-09T11:33:30;96203.56;;;21.76;65.21
50394;BME280;36308;46.312;25.288;2022-09-09T11:38:45;96191.38;;;21.65;65.34
50394;BME280;36308;46.312;25.288;2022-09-09T11:41:16;96193.47;;;21.59;65.28
50394;BME280;36308;46.312;25.288;2022-09-09T11:43:50;96191.25;;;21.53;65.49
50394;BME280;36308;46.312;25.288;2022-09-09T11:46:39;96193.50;;;21.51;65.88
50394;BME280;36308;46.312;25.288;2022-09-09T11:49:06;96188.66;;;21.48;66.30
50394;BME280;36308;46.312;25.288;2022-09-09T11:51:33;96192.06;;;21.45;66.73
50394;BME280;36308;46.312;25.288;2022-09-09T11:56:32;96206.19;;;21.38;67.26
50394;BME280;36308;46.312;25.288;2022-09-09T11:59:00;96213.13;;;21.35;67.51
50394;BME280;36308;46.312;25.288;2022-09-09T12:01:39;96212.00;;;21.28;67.26
50394;BME280;36308;46.312;25.288;2022-09-09T12:04:37;96212.00;;;21.28;67.53
50394;BME280;36308;46.312;25.288;2022-09-09T12:09:43;96208.59;;;21.22;67.81
50394;BME280;36308;46.312;25.288;2022-09-09T12:15:02;96214.38;;;21.12;67.89
50394;BME280;36308;46.312;25.288;2022-09-09T12:17:30;96205.53;;;21.06;67.80
50394;BME280;36308;46.312;25.288;2022-09-09T12:20:11;96207.31;;;21.02;67.87
50394;BME280;36308;46.312;25.288;2022-09-09T12:33:37;96172.25;;;20.69;68.35
50394;BME280;36308;46.312;25.288;2022-09-09T12:36:05;96189.91;;;20.72;68.42
50394;BME280;36308;46.312;25.288;2022-09-09T12:38:37;96200.69;;;20.68;68.66
50394;BME280;36308;46.312;25.288;2022-09-09T12:41:04;96203.72;;;20.67;68.80
50394;BME280;36308;46.312;25.288;2022-09-09T12:43:29;96198.91;;;20.64;69.03
50394;BME280;36308;46.312;25.288;2022-09-09T12:45:58;96191.47;;;20.55;69.17
50394;BME280;36308;46.312;25.288;2022-09-09T12:48:33;96199.34;;;20.57;69.29
50394;BME280;36308;46.312;25.288;2022-09-09T12:51:00;96179.56;;;20.51;69.25
50394;BME280;36308;46.312;25.288;2022-09-09T12:53:35;96181.81;;;20.49;69.37
50394;BME280;36308;46.312;25.288;2022-09-09T12:56:04;96177.97;;;20.50;69.72
50394;BME280;36308;46.312;25.288;2022-09-09T12:58:32;96176.34;;;20.49;69.81
50394;BME280;36308;46.312;25.288;2022-09-09T13:00:59;96171.69;;;20.50;70.12
50394;BME280;36308;46.312;25.288;2022-09-09T13:03:26;96172.34;;;20.47;70.13
50394;BME280;36308;46.312;25.288;2022-09-09T13:05:58;96168.81;;;20.46;70.01
50394;BME280;36308;46.312;25.288;2022-09-09T13:08:25;96158.19;;;20.45;70.01
50394;BME280;36308;46.312;25.288;2022-09-09T13:11:03;96166.38;;;20.45;70.16
50394;BME280;36308;46.312;25.288;2022-09-09T13:13:35;96162.84;;;20.44;70.11
50394;BME280;36308;46.312;25.288;2022-09-09T13:16:03;96150.31;;;20.43;70.28
50394;BME280;36308;46.312;25.288;2022-09-09T13:18:33;96154.19;;;20.42;70.40
50394;BME280;36308;46.312;25.288;2022-09-09T13:21:00;96155.78;;;20.43;70.47
50394;BME280;36308;46.312;25.288;2022-09-09T13:23:48;96150.31;;;20.43;70.90
50394;BME280;36308;46.312;25.288;2022-09-09T13:26:26;96150.31;;;20.43;70.82
50394;BME280;36308;46.312;25.288;2022-09-09T13:28:55;96146.47;;;20.44;70.87
50394;BME280;36308;46.312;25.288;2022-09-09T13:31:34;96141.31;;;20.43;70.65
50394;BME280;36308;46.312;25.288;2022-09-09T13:34:32;96140.53;;;20.42;70.95
50394;BME280;36308;46.312;25.288;2022-09-09T13:36:59;96141.44;;;20.37;71.13
50394;BME280;36308;46.312;25.288;2022-09-09T13:39:28;96143.25;;;20.42;70.74
50394;BME280;36308;46.312;25.288;2022-09-09T13:41:54;96141.16;;;20.39;70.79
50394;BME280;36308;46.312;25.288;2022-09-09T13:44:34;96136.81;;;20.38;71.03
50394;BME280;36308;46.312;25.288;2022-09-09T13:47:22;96140.84;;;20.41;71.17
50394;BME280;36308;46.312;25.288;2022-09-09T13:49:51;96135.38;;;20.41;71.18
50394;BME280;36308;46.312;25.288;2022-09-09T13:52:18;96132.34;;;20.42;71.11
50394;BME280;36308;46.312;25.288;2022-09-09T13:54:51;96137.78;;;20.42;71.14
50394;BME280;36308;46.312;25.288;2022-09-09T13:57:20;96133.91;;;20.43;71.19
50394;BME280;36308;46.312;25.288;2022-09-09T13:59:46;96110.94;;;20.35;71.21
50394;BME280;36308;46.312;25.288;2022-09-09T14:02:13;96130.09;;;20.44;71.13
50394;BME280;36308;46.312;25.288;2022-09-09T14:04:38;96117.53;;;20.43;71.44
50394;BME280;36308;46.312;25.288;2022-09-09T14:07:10;96119.16;;;20.44;71.50
50394;BME280;36308;46.312;25.288;2022-09-09T14:09:37;96113.34;;;20.46;71.75
50394;BME280;36308;46.312;25.288;2022-09-09T14:12:02;96102.78;;;20.44;71.65
50394;BME280;36308;46.312;25.288;2022-09-09T14:14:28;96102.44;;;20.46;72.09
50394;BME280;36308;46.312;25.288;2022-09-09T14:16:54;96096.66;;;20.47;72.63
50394;BME280;36308;46.312;25.288;2022-09-09T14:19:19;96084.78;;;20.43;72.51
50394;BME280;36308;46.312;25.288;2022-09-09T14:21:45;96094.41;;;20.49;72.72
50394;BME280;36308;46.312;25.288;2022-09-09T14:24:10;96091.84;;;20.53;72.76
50394;BME280;36308;46.312;25.288;2022-09-09T14:26:35;96089.28;;;20.56;72.68
50394;BME280;36308;46.312;25.288;2022-09-09T14:29:02;96085.63;;;20.61;72.77
50394;BME280;36308;46.312;25.288;2022-09-09T14:31:27;96088.19;;;20.66;72.78
50394;BME280;36308;46.312;25.288;2022-09-09T14:33:53;96096.06;;;20.68;72.70
50394;BME280;36308;46.312;25.288;2022-09-09T14:36:18;96088.53;;;20.73;72.97
50394;BME280;36308;46.312;25.288;2022-09-09T14:38:44;96086.28;;;20.75;73.09
50394;BME280;36308;46.312;25.288;2022-09-09T14:41:14;96090.78;;;20.80;73.02
50394;BME280;36308;46.312;25.288;2022-09-09T14:43:43;96091.72;;;20.84;73.09
50394;BME280;36308;46.312;25.288;2022-09-09T14:46:11;96091.91;;;20.88;72.71
50394;BME280;36308;46.312;25.288;2022-09-09T14:48:37;96081.13;;;20.83;72.08
50394;BME280;36308;46.312;25.288;2022-09-09T14:51:27;96092.03;;;20.91;71.85
50394;BME280;36308;46.312;25.288;2022-09-09T14:53:58;96095.25;;;20.93;71.16
50394;BME280;36308;46.312;25.288;2022-09-09T14:56:29;96089.47;;;20.86;70.10
50394;BME280;36308;46.312;25.288;2022-09-09T14:58:56;96097.97;;;20.93;69.48
50394;BME280;36308;46.312;25.288;2022-09-09T15:01:23;96097.97;;;20.93;69.61
50394;BME280;36308;46.312;25.288;2022-09-09T15:03:51;96095.72;;;20.95;70.12
50394;BME280;36308;46.312;25.288;2022-09-09T15:06:17;96098.94;;;20.97;70.35
50394;BME280;36308;46.312;25.288;2022-09-09T15:08:44;96098.94;;;20.97;70.24
50394;BME280;36308;46.312;25.288;2022-09-09T15:11:11;96103.00;;;21.00;70.52
50394;BME280;36308;46.312;25.288;2022-09-09T15:13:38;96097.84;;;20.98;70.54
50394;BME280;36308;46.312;25.288;2022-09-09T15:16:05;96100.56;;;20.98;70.42
50394;BME280;36308;46.312;25.288;2022-09-09T15:18:32;96097.84;;;20.98;70.62
50394;BME280;36308;46.312;25.288;2022-09-09T15:21:05;96093.34;;;20.94;70.51
50394;BME280;36308;46.312;25.288;2022-09-09T15:23:32;96093.47;;;20.97;70.49